createdAt,value
2018-06-10T00:00:28.098Z,0
2018-06-10T00:01:28.816Z,0
2018-06-10T00:02:30.121Z,0
2018-06-10T00:03:31.100Z,0
2018-06-10T00:04:32.095Z,0
2018-06-10T00:05:32.802Z,0
2018-06-10T00:06:33.816Z,0
2018-06-10T00:07:35.129Z,0
2018-06-10T00:08:36.076Z,0
2018-06-10T00:09:37.119Z,0
2018-06-10T00:10:37.954Z,0
2018-06-10T00:11:38.814Z,0
2018-06-10T00:12:40.090Z,0
2018-06-10T00:13:41.099Z,0
2018-06-10T00:14:42.100Z,0
2018-06-10T00:15:43.191Z,0
2018-06-10T00:16:44.723Z,0
2018-06-10T00:17:45.092Z,0
2018-06-10T00:18:46.091Z,0
2018-06-10T00:19:47.131Z,0
2018-06-10T00:20:48.243Z,0
2018-06-10T00:21:48.498Z,0
2018-06-10T00:22:50.079Z,0
2018-06-10T00:23:51.719Z,0
2018-06-10T00:24:52.069Z,0
2018-06-10T00:25:53.075Z,0
2018-06-10T00:26:54.071Z,0
2018-06-10T00:27:54.887Z,0
2018-06-10T00:28:56.722Z,0
2018-06-10T00:29:57.724Z,0
2018-06-10T00:30:57.796Z,0
2018-06-10T00:31:58.590Z,0
2018-06-10T00:33:00.726Z,0
2018-06-10T00:34:00.846Z,0
2018-06-10T00:35:01.487Z,0
2018-06-10T00:36:03.076Z,0
2018-06-10T00:37:04.069Z,0
2018-06-10T00:38:04.476Z,0
2018-06-10T00:39:06.053Z,0
2018-06-10T00:40:07.058Z,0
2018-06-10T00:41:08.087Z,0
2018-06-10T00:42:09.053Z,0
2018-06-10T00:43:10.053Z,0
2018-06-10T00:44:11.046Z,0
2018-06-10T00:45:12.054Z,0
2018-06-10T00:46:12.902Z,0
2018-06-10T00:47:14.042Z,0
2018-06-10T00:48:14.778Z,0
2018-06-10T00:49:16.150Z,0
2018-06-10T00:50:16.774Z,0
2018-06-10T00:51:18.053Z,0
2018-06-10T00:52:19.072Z,0
2018-06-10T00:53:20.744Z,0
2018-06-10T00:54:21.070Z,0
2018-06-10T00:55:22.046Z,0
2018-06-10T00:56:23.035Z,0
2018-06-10T00:57:23.748Z,0
2018-06-10T00:58:25.023Z,0
2018-06-10T00:59:25.464Z,0
2018-06-10T01:00:26.752Z,0
2018-06-10T01:01:27.888Z,0
2018-06-10T01:02:29.029Z,0
2018-06-10T01:03:30.046Z,0
2018-06-10T01:04:31.076Z,0
2018-06-10T01:05:31.458Z,0
2018-06-10T01:06:32.798Z,0
2018-06-10T01:07:34.022Z,0
2018-06-10T01:08:35.020Z,0
2018-06-10T01:09:35.757Z,0
2018-06-10T01:10:36.742Z,0
2018-06-10T01:11:38.132Z,0
2018-06-10T01:12:39.035Z,0
2018-06-10T01:13:39.737Z,0
2018-06-10T01:14:41.060Z,0
2018-06-10T01:15:42.049Z,0
2018-06-10T01:16:43.038Z,0
2018-06-10T01:17:44.018Z,0
2018-06-10T01:18:44.741Z,0
2018-06-10T01:19:45.718Z,0
2018-06-10T01:20:46.757Z,0
2018-06-10T01:21:48.028Z,0
2018-06-10T01:22:49.033Z,0
2018-06-10T01:23:49.437Z,0
2018-06-10T01:24:50.714Z,0
2018-06-10T01:25:52.012Z,0
2018-06-10T01:26:53.033Z,0
2018-06-10T01:27:54.000Z,0
2018-06-10T01:28:55.016Z,0
2018-06-10T01:29:56.020Z,0
2018-06-10T01:30:56.730Z,0
2018-06-10T01:31:58.000Z,0
2018-06-10T01:32:58.718Z,0
2018-06-10T01:33:59.705Z,0
2018-06-10T01:35:00.717Z,0
2018-06-10T01:36:01.706Z,0
2018-06-10T01:37:02.993Z,0
2018-06-10T01:38:03.420Z,0
2018-06-10T01:39:04.999Z,0
2018-06-10T01:40:05.713Z,0
2018-06-10T01:41:06.988Z,0
2018-06-10T01:42:07.705Z,0
2018-06-10T01:43:08.999Z,0
2018-06-10T01:44:09.688Z,0
2018-06-10T01:45:10.692Z,0
2018-06-10T01:46:11.999Z,0
2018-06-10T01:47:12.708Z,0
2018-06-10T01:48:13.700Z,0
2018-06-10T01:49:14.969Z,0
2018-06-10T01:50:15.981Z,0
2018-06-10T01:51:16.978Z,0
2018-06-10T01:52:18.127Z,0
2018-06-10T01:53:18.707Z,0
2018-06-10T01:54:19.988Z,0
2018-06-10T01:55:20.701Z,0
2018-06-10T01:56:21.686Z,0
2018-06-10T01:57:22.966Z,0
2018-06-10T01:58:23.402Z,0
2018-06-10T01:59:24.720Z,0
2018-06-10T02:00:25.715Z,0
2018-06-10T02:01:26.794Z,0
2018-06-10T02:02:27.664Z,0
2018-06-10T02:03:28.667Z,0
2018-06-10T02:04:29.681Z,0
2018-06-10T02:05:30.948Z,0
2018-06-10T02:06:31.677Z,0
2018-06-10T02:07:32.973Z,0
2018-06-10T02:08:33.961Z,0
2018-06-10T02:09:34.673Z,0
2018-06-10T02:10:35.948Z,0
2018-06-10T02:11:36.373Z,0
2018-06-10T02:12:37.819Z,0
2018-06-10T02:13:38.970Z,0
2018-06-10T02:14:39.664Z,0
2018-06-10T02:15:40.946Z,0
2018-06-10T02:16:41.954Z,0
2018-06-10T02:17:42.681Z,0
2018-06-10T02:18:43.956Z,0
2018-06-10T02:19:44.950Z,0
2018-06-10T02:20:45.669Z,0
2018-06-10T02:21:46.959Z,0
2018-06-10T02:22:47.952Z,0
2018-06-10T02:23:48.935Z,0
2018-06-10T02:24:49.973Z,0
2018-06-10T02:25:50.364Z,0
2018-06-10T02:26:51.949Z,0
2018-06-10T02:27:52.643Z,0
2018-06-10T02:28:53.659Z,0
2018-06-10T02:29:54.925Z,0
2018-06-10T02:30:56.874Z,0
2018-06-10T02:31:56.663Z,0
2018-06-10T02:32:57.946Z,0
2018-06-10T02:33:58.652Z,0
2018-06-10T02:34:59.936Z,0
2018-06-10T02:36:00.986Z,0
2018-06-10T02:37:01.754Z,0
2018-06-10T02:38:02.653Z,0
2018-06-10T02:39:03.938Z,0
2018-06-10T02:40:04.951Z,0
2018-06-10T02:41:06.865Z,0
2018-06-10T02:42:07.860Z,0
2018-06-10T02:43:08.146Z,0
2018-06-10T02:44:08.641Z,0
2018-06-10T02:45:10.853Z,0
2018-06-10T02:46:10.633Z,0
2018-06-10T02:47:12.835Z,0
2018-06-10T02:48:13.009Z,0
2018-06-10T02:49:14.867Z,0
2018-06-10T02:50:15.874Z,0
2018-06-10T02:51:16.578Z,0
2018-06-10T02:52:16.924Z,0
2018-06-10T02:53:18.066Z,0
2018-06-10T02:54:19.854Z,0
2018-06-10T02:55:19.905Z,0
2018-06-10T02:56:20.345Z,0
2018-06-10T02:57:22.836Z,0
2018-06-10T02:58:23.260Z,0
2018-06-10T02:59:23.613Z,0
2018-06-10T03:00:24.607Z,0
2018-06-10T03:01:25.893Z,0
2018-06-10T03:02:26.910Z,0
2018-06-10T03:03:27.602Z,0
2018-06-10T03:04:28.906Z,0
2018-06-10T03:05:29.617Z,0
2018-06-10T03:06:30.893Z,0
2018-06-10T03:07:31.316Z,0
2018-06-10T03:08:32.773Z,0
2018-06-10T03:09:33.908Z,0
2018-06-10T03:10:34.900Z,0
2018-06-10T03:11:35.884Z,0
2018-06-10T03:12:36.901Z,0
2018-06-10T03:13:37.911Z,0
2018-06-10T03:14:38.914Z,0
2018-06-10T03:15:39.619Z,0
2018-06-10T03:16:40.892Z,0
2018-06-10T03:17:41.893Z,0
2018-06-10T03:18:43.038Z,0
2018-06-10T03:19:43.892Z,0
2018-06-10T03:20:44.589Z,0
2018-06-10T03:21:45.294Z,0
2018-06-10T03:22:46.875Z,0
2018-06-10T03:23:48.231Z,0
2018-06-10T03:24:48.867Z,0
2018-06-10T03:25:49.576Z,0
2018-06-10T03:26:50.605Z,0
2018-06-10T03:27:51.887Z,0
2018-06-10T03:28:52.897Z,0
2018-06-10T03:29:53.887Z,0
2018-06-10T03:30:54.921Z,0
2018-06-10T03:31:55.583Z,0
2018-06-10T03:32:56.880Z,0
2018-06-10T03:33:58.605Z,0
2018-06-10T03:34:58.851Z,0
2018-06-10T03:35:59.570Z,0
2018-06-10T03:37:00.872Z,0
2018-06-10T03:38:01.583Z,0
2018-06-10T03:39:02.864Z,0
2018-06-10T03:40:03.568Z,0
2018-06-10T03:41:04.855Z,0
2018-06-10T03:42:05.568Z,0
2018-06-10T03:43:06.850Z,0
2018-06-10T03:44:07.851Z,0
2018-06-10T03:45:08.859Z,0
2018-06-10T03:46:09.277Z,0
2018-06-10T03:47:10.842Z,0
2018-06-10T03:48:11.559Z,0
2018-06-10T03:49:12.849Z,0
2018-06-10T03:50:13.854Z,0
2018-06-10T03:51:14.845Z,0
2018-06-10T03:52:15.831Z,0
2018-06-10T03:53:16.861Z,0
2018-06-10T03:54:17.415Z,0
2018-06-10T03:55:18.852Z,0
2018-06-10T03:56:19.863Z,0
2018-06-10T03:57:20.551Z,0
2018-06-10T03:58:21.835Z,0
2018-06-10T03:59:22.831Z,0
2018-06-10T04:00:23.825Z,0
2018-06-10T04:01:24.840Z,0
2018-06-10T04:02:25.544Z,0
2018-06-10T04:03:26.541Z,0
2018-06-10T04:04:28.922Z,0
2018-06-10T04:05:28.847Z,0
2018-06-10T04:06:29.837Z,0
2018-06-10T04:07:30.551Z,0
2018-06-10T04:08:31.824Z,0
2018-06-10T04:09:32.833Z,0
2018-06-10T04:10:33.256Z,0
2018-06-10T04:11:34.522Z,0
2018-06-10T04:12:35.853Z,0
2018-06-10T04:13:36.824Z,0
2018-06-10T04:14:37.920Z,0
2018-06-10T04:15:38.817Z,0
2018-06-10T04:16:39.516Z,0
2018-06-10T04:17:40.835Z,0
2018-06-10T04:18:41.806Z,0
2018-06-10T04:19:42.312Z,0
2018-06-10T04:20:43.516Z,0
2018-06-10T04:21:44.508Z,0
2018-06-10T04:22:45.843Z,0
2018-06-10T04:23:46.813Z,0
2018-06-10T04:24:47.668Z,0
2018-06-10T04:25:48.817Z,0
2018-06-10T04:26:49.817Z,0
2018-06-10T04:27:51.469Z,0
2018-06-10T04:28:52.458Z,0
2018-06-10T04:29:52.828Z,0
2018-06-10T04:30:53.822Z,0
2018-06-10T04:31:54.224Z,0
2018-06-10T04:32:55.777Z,0
2018-06-10T04:33:56.794Z,0
2018-06-10T04:34:57.936Z,0
2018-06-10T04:35:58.781Z,0
2018-06-10T04:36:59.515Z,0
2018-06-10T04:38:00.522Z,0
2018-06-10T04:39:01.796Z,0
2018-06-10T04:40:02.808Z,0
2018-06-10T04:41:03.788Z,0
2018-06-10T04:42:04.515Z,0
2018-06-10T04:43:05.509Z,0
2018-06-10T04:44:06.789Z,0
2018-06-10T04:45:07.847Z,0
2018-06-10T04:46:08.784Z,0
2018-06-10T04:47:10.124Z,0
2018-06-10T04:48:10.481Z,0
2018-06-10T04:49:11.784Z,0
2018-06-10T04:50:12.882Z,0
2018-06-10T04:51:13.764Z,0
2018-06-10T04:52:14.759Z,0
2018-06-10T04:53:15.499Z,0
2018-06-10T04:54:16.766Z,0
2018-06-10T04:55:17.762Z,0
2018-06-10T04:56:18.785Z,0
2018-06-10T04:57:19.810Z,0
2018-06-10T04:58:20.775Z,0
2018-06-10T04:59:21.186Z,0
2018-06-10T05:00:23.121Z,0
2018-06-10T05:01:23.782Z,0
2018-06-10T05:02:24.759Z,0
2018-06-10T05:03:25.759Z,0
2018-06-10T05:04:26.754Z,0
2018-06-10T05:05:27.489Z,0
2018-06-10T05:06:28.752Z,0
2018-06-10T05:07:29.496Z,0
2018-06-10T05:08:30.775Z,0
2018-06-10T05:09:31.469Z,0
2018-06-10T05:10:32.187Z,0
2018-06-10T05:11:33.174Z,0
2018-06-10T05:12:34.474Z,0
2018-06-10T05:13:35.762Z,0
2018-06-10T05:14:36.750Z,0
2018-06-10T05:15:39.045Z,0
2018-06-10T05:16:38.778Z,0
2018-06-10T05:17:39.732Z,0
2018-06-10T05:18:40.742Z,0
2018-06-10T05:19:42.405Z,0
2018-06-10T05:20:42.743Z,0
2018-06-10T05:21:43.470Z,0
2018-06-10T05:22:44.457Z,0
2018-06-10T05:23:45.774Z,0
2018-06-10T05:24:46.745Z,0
2018-06-10T05:25:47.908Z,0
2018-06-10T05:26:48.735Z,0
2018-06-10T05:27:49.440Z,0
2018-06-10T05:28:50.740Z,0
2018-06-10T05:29:51.750Z,0
2018-06-10T05:30:52.724Z,0
2018-06-10T05:31:53.745Z,0
2018-06-10T05:32:54.734Z,0
2018-06-10T05:33:55.725Z,0
2018-06-10T05:34:56.756Z,0
2018-06-10T05:35:57.598Z,0
2018-06-10T05:36:58.718Z,0
2018-06-10T05:37:59.431Z,0
2018-06-10T05:39:00.745Z,0
2018-06-10T05:40:01.850Z,0
2018-06-10T05:41:02.741Z,0
2018-06-10T05:42:03.722Z,0
2018-06-10T05:43:04.431Z,0
2018-06-10T05:44:05.425Z,0
2018-06-10T05:45:06.719Z,0
2018-06-10T05:46:07.824Z,0
2018-06-10T05:47:08.728Z,0
2018-06-10T05:48:09.436Z,0
2018-06-10T05:49:10.433Z,0
2018-06-10T05:50:11.728Z,0
2018-06-10T05:51:12.877Z,0
2018-06-10T05:52:13.785Z,0
2018-06-10T05:53:14.730Z,0
2018-06-10T05:54:15.425Z,0
2018-06-10T05:55:16.436Z,0
2018-06-10T05:56:17.425Z,0
2018-06-10T05:57:18.695Z,0
2018-06-10T05:58:19.718Z,0
2018-06-10T05:59:20.418Z,0
2018-06-10T06:00:21.420Z,0
2018-06-10T06:01:22.696Z,0
2018-06-10T06:02:23.132Z,0
2018-06-10T06:03:24.752Z,0
2018-06-10T06:04:25.422Z,0
2018-06-10T06:05:26.692Z,0
2018-06-10T06:06:27.141Z,0
2018-06-10T06:07:28.680Z,0
2018-06-10T06:08:29.722Z,0
2018-06-10T06:09:30.703Z,0
2018-06-10T06:10:31.470Z,0
2018-06-10T06:11:32.409Z,0
2018-06-10T06:12:33.673Z,0
2018-06-10T06:13:34.699Z,0
2018-06-10T06:14:35.684Z,0
2018-06-10T06:15:36.701Z,0
2018-06-10T06:16:37.541Z,0
2018-06-10T06:17:38.702Z,0
2018-06-10T06:18:39.691Z,0
2018-06-10T06:19:40.689Z,0
2018-06-10T06:20:41.120Z,0
2018-06-10T06:21:42.692Z,0
2018-06-10T06:22:43.680Z,0
2018-06-10T06:23:44.692Z,0
2018-06-10T06:24:45.413Z,0
2018-06-10T06:25:46.686Z,0
2018-06-10T06:26:47.602Z,0
2018-06-10T06:27:48.681Z,0
2018-06-10T06:28:49.420Z,0
2018-06-10T06:29:50.691Z,0
2018-06-10T06:30:52.583Z,0
2018-06-10T06:31:53.025Z,0
2018-06-10T06:32:53.394Z,0
2018-06-10T06:33:55.604Z,0
2018-06-10T06:34:55.081Z,0
2018-06-10T06:35:56.368Z,0
2018-06-10T06:36:57.513Z,0
2018-06-10T06:37:58.664Z,0
2018-06-10T06:38:59.371Z,0
2018-06-10T06:40:01.601Z,0
2018-06-10T06:41:01.648Z,0
2018-06-10T06:42:03.009Z,0
2018-06-10T06:43:03.361Z,0
2018-06-10T06:44:04.363Z,0
2018-06-10T06:45:05.651Z,0
2018-06-10T06:46:06.655Z,0
2018-06-10T06:47:07.612Z,0
2018-06-10T06:48:08.644Z,0
2018-06-10T06:49:09.682Z,0
2018-06-10T06:50:10.362Z,0
2018-06-10T06:51:12.611Z,0
2018-06-10T06:52:12.536Z,0
2018-06-10T06:53:13.386Z,0
2018-06-10T06:54:14.649Z,0
2018-06-10T06:55:15.355Z,0
2018-06-10T06:56:16.371Z,0
2018-06-10T06:57:17.475Z,0
2018-06-10T06:58:18.671Z,0
2018-06-10T06:59:19.653Z,0
2018-06-10T07:00:20.636Z,0
2018-06-10T07:01:21.637Z,0
2018-06-10T07:02:22.787Z,0
2018-06-10T07:03:23.362Z,0
2018-06-10T07:04:24.370Z,0
2018-06-10T07:05:25.355Z,0
2018-06-10T07:06:26.376Z,0
2018-06-10T07:07:27.732Z,0
2018-06-10T07:08:28.376Z,0
2018-06-10T07:09:29.385Z,0
2018-06-10T07:10:30.631Z,0
2018-06-10T07:11:31.637Z,0
2018-06-10T07:12:32.830Z,0
2018-06-10T07:13:33.628Z,0
2018-06-10T07:14:34.361Z,0
2018-06-10T07:15:35.649Z,0
2018-06-10T07:16:36.381Z,0
2018-06-10T07:17:37.683Z,0
2018-06-10T07:18:38.614Z,0
2018-06-10T07:19:39.355Z,0
2018-06-10T07:20:40.632Z,0
2018-06-10T07:21:41.622Z,0
2018-06-10T07:22:42.968Z,0
2018-06-10T07:23:43.537Z,0
2018-06-10T07:24:44.633Z,0
2018-06-10T07:25:45.638Z,0
2018-06-10T07:26:46.329Z,0
2018-06-10T07:27:47.379Z,0
2018-06-10T07:28:48.680Z,0
2018-06-10T07:29:49.606Z,0
2018-06-10T07:30:50.637Z,0
2018-06-10T07:31:51.611Z,0
2018-06-10T07:32:52.334Z,0
2018-06-10T07:33:53.342Z,0
2018-06-10T07:34:54.326Z,0
2018-06-10T07:35:55.331Z,0
2018-06-10T07:36:56.339Z,0
2018-06-10T07:37:57.313Z,0
2018-06-10T07:38:58.310Z,0
2018-06-10T07:39:59.642Z,0
2018-06-10T07:41:00.597Z,0
2018-06-10T07:42:01.628Z,0
2018-06-10T07:43:02.963Z,0
2018-06-10T07:44:03.588Z,0
2018-06-10T07:45:04.313Z,0
2018-06-10T07:46:05.319Z,0
2018-06-10T07:47:06.019Z,0
2018-06-10T07:48:07.603Z,0
2018-06-10T07:49:08.632Z,0
2018-06-10T07:50:09.584Z,0
2018-06-10T07:51:10.298Z,0
2018-06-10T07:52:11.025Z,0
2018-06-10T07:53:12.158Z,0
2018-06-10T07:54:13.615Z,0
2018-06-10T07:55:14.601Z,0
2018-06-10T07:56:15.588Z,0
2018-06-10T08:15:34.769Z,158
2018-06-10T08:16:35.739Z,141
2018-06-10T08:17:36.701Z,138
2018-06-10T08:20:20.667Z,156
2018-06-10T08:21:21.571Z,137
2018-06-10T08:22:22.275Z,134
2018-06-10T08:23:23.580Z,132
2018-06-10T08:50:56.456Z,146
2018-06-10T08:51:46.421Z,144
2018-06-10T08:52:47.152Z,127
2018-06-10T08:53:47.869Z,124
2018-06-10T08:54:48.864Z,124
2018-06-10T08:55:50.137Z,127
2018-06-10T08:56:50.925Z,124
2018-06-10T08:57:52.123Z,124
2018-06-10T08:58:53.117Z,124
2018-06-10T08:59:53.877Z,124
2018-06-10T09:00:54.854Z,125
2018-06-10T09:01:55.862Z,126
2018-06-10T09:02:58.277Z,124
2018-06-10T09:03:57.847Z,126
2018-06-10T09:04:59.132Z,124
2018-06-10T09:06:00.116Z,125
2018-06-10T09:07:01.128Z,124
2018-06-10T09:08:02.115Z,126
2018-06-10T09:09:03.100Z,126
2018-06-10T09:10:04.128Z,126
2018-06-10T09:11:04.843Z,124
2018-06-10T09:12:06.100Z,124
2018-06-10T09:13:06.855Z,125
2018-06-10T09:14:08.102Z,125
2018-06-10T09:15:09.226Z,127
2018-06-10T09:16:09.570Z,125
2018-06-10T09:17:10.838Z,126
2018-06-10T09:18:12.109Z,125
2018-06-10T09:19:13.097Z,127
2018-06-10T09:27:23.067Z,166
2018-06-10T09:28:23.980Z,144
2018-06-10T09:29:24.978Z,143
2018-06-10T09:30:25.719Z,141
2018-06-10T09:31:26.427Z,142
2018-06-10T09:32:28.115Z,140
2018-06-10T09:33:28.983Z,140
2018-06-10T09:34:29.697Z,141
2018-06-10T09:35:31.617Z,141
2018-06-10T09:36:31.967Z,140
2018-06-10T09:37:34.264Z,139
2018-06-10T09:38:33.466Z,140
2018-06-10T09:39:34.978Z,140
2018-06-10T09:40:35.681Z,141
2018-06-10T09:41:36.960Z,143
2018-06-10T09:42:37.958Z,142
2018-06-10T09:43:38.719Z,141
2018-06-10T09:44:39.956Z,142
2018-06-10T09:45:40.955Z,141
2018-06-10T09:46:41.971Z,142
2018-06-10T09:47:42.952Z,142
2018-06-10T09:48:43.954Z,142
2018-06-10T09:49:44.694Z,142
2018-06-10T09:50:45.976Z,141
2018-06-10T09:51:46.948Z,142
2018-06-10T09:52:48.124Z,143
2018-06-10T09:53:48.950Z,143
2018-06-10T09:54:49.674Z,142
2018-06-10T09:55:50.969Z,143
2018-06-10T09:56:51.999Z,142
2018-06-10T09:57:52.957Z,141
2018-06-10T09:58:53.937Z,141
2018-06-10T09:59:54.946Z,144
2018-06-10T10:00:55.690Z,143
2018-06-10T10:01:56.693Z,143
2018-06-10T10:02:57.887Z,142
2018-06-10T10:03:58.671Z,141
2018-06-10T10:04:59.935Z,143
2018-06-10T10:06:00.959Z,141
2018-06-10T10:07:01.663Z,142
2018-06-10T10:08:02.928Z,143
2018-06-10T10:09:03.951Z,142
2018-06-10T10:10:04.923Z,142
2018-06-10T10:11:05.937Z,141
2018-06-10T10:12:06.653Z,144
2018-06-10T10:13:07.488Z,142
2018-06-10T10:14:08.931Z,142
2018-06-10T10:15:09.663Z,142
2018-06-10T10:16:10.942Z,143
2018-06-10T10:17:11.935Z,142
2018-06-10T10:18:12.666Z,142
2018-06-10T10:19:13.935Z,142
2018-06-10T10:20:14.916Z,143
2018-06-10T10:21:15.648Z,142
2018-06-10T10:22:16.640Z,144
2018-06-10T10:23:17.946Z,143
2018-06-10T10:24:18.908Z,142
2018-06-10T10:25:19.643Z,142
2018-06-10T10:26:20.911Z,141
2018-06-10T10:27:21.910Z,143
2018-06-10T10:28:22.905Z,143
2018-06-10T10:29:23.927Z,141
2018-06-10T10:30:24.663Z,141
2018-06-10T10:31:25.913Z,143
2018-06-10T10:32:26.654Z,143
2018-06-10T10:33:27.914Z,143
2018-06-10T10:34:28.632Z,144
2018-06-10T10:35:29.935Z,141
2018-06-10T10:36:30.909Z,144
2018-06-10T10:37:31.891Z,143
2018-06-10T10:38:33.297Z,142
2018-06-10T10:39:33.622Z,144
2018-06-10T10:40:34.628Z,143
2018-06-10T10:41:36.821Z,141
2018-06-10T10:42:36.611Z,143
2018-06-10T10:43:38.101Z,144
2018-06-10T10:44:38.634Z,144
2018-06-10T10:45:39.613Z,143
2018-06-10T10:46:40.892Z,143
2018-06-10T10:47:41.870Z,143
2018-06-10T10:48:42.896Z,143
2018-06-10T10:49:43.905Z,143
2018-06-10T10:50:44.868Z,143
2018-06-10T10:51:45.858Z,142
2018-06-10T10:52:46.604Z,143
2018-06-10T10:53:47.877Z,143
2018-06-10T10:54:48.867Z,142
2018-06-10T10:55:49.876Z,144
2018-06-10T10:56:50.880Z,141
2018-06-10T10:57:51.873Z,143
2018-06-10T10:58:52.958Z,142
2018-06-10T10:59:53.914Z,144
2018-06-10T11:00:54.584Z,143
2018-06-10T11:01:55.768Z,144
2018-06-10T11:02:56.578Z,144
2018-06-10T11:03:57.998Z,143
2018-06-10T11:04:58.573Z,142
2018-06-10T11:05:59.853Z,143
2018-06-10T11:07:00.930Z,143
2018-06-10T11:08:01.856Z,143
2018-06-10T11:09:02.534Z,143
2018-06-10T11:10:04.804Z,142
2018-06-10T11:11:04.835Z,143
2018-06-10T11:12:05.595Z,143
2018-06-10T11:13:07.786Z,144
2018-06-10T11:14:07.869Z,143
2018-06-10T11:15:08.599Z,142
2018-06-10T11:16:10.796Z,143
2018-06-10T11:17:10.900Z,142
2018-06-10T11:18:11.845Z,143
2018-06-10T11:19:12.741Z,143
2018-06-10T11:20:13.842Z,142
2018-06-10T11:21:14.835Z,144
2018-06-10T11:22:15.834Z,144
2018-06-10T11:23:16.855Z,142
2018-06-10T11:24:18.198Z,143
2018-06-10T11:25:18.560Z,144
2018-06-10T11:26:19.562Z,143
2018-06-10T11:27:21.174Z,144
2018-06-10T11:28:21.564Z,144
2018-06-10T11:29:22.942Z,142
2018-06-10T11:30:23.820Z,144
2018-06-10T11:31:24.850Z,142
2018-06-10T11:32:25.272Z,143
2018-06-10T11:33:26.808Z,144
2018-06-10T11:34:27.931Z,143
2018-06-10T11:35:28.550Z,143
2018-06-10T11:36:29.541Z,142
2018-06-10T11:37:30.277Z,144
2018-06-10T11:38:31.872Z,143
2018-06-10T11:39:32.551Z,144
2018-06-10T11:40:33.806Z,142
2018-06-10T11:41:34.803Z,144
2018-06-10T11:42:36.469Z,144
2018-06-10T11:43:36.555Z,143
2018-06-10T11:44:37.932Z,143
2018-06-10T11:45:38.797Z,144
2018-06-10T11:46:39.805Z,145
2018-06-10T11:47:40.874Z,143
2018-06-10T11:48:41.533Z,144
2018-06-10T11:49:42.962Z,143
2018-06-10T11:50:43.568Z,144
2018-06-10T11:51:44.825Z,143
2018-06-10T11:52:45.539Z,144
2018-06-10T11:53:46.804Z,143
2018-06-10T11:54:47.942Z,143
2018-06-10T11:55:48.801Z,142
2018-06-10T11:56:49.806Z,142
2018-06-10T11:57:50.895Z,144
2018-06-10T11:58:51.831Z,143
2018-06-10T11:59:52.904Z,143
2018-06-10T12:00:53.794Z,144
2018-06-10T12:01:54.672Z,145
2018-06-10T12:02:55.554Z,143
2018-06-10T12:03:56.788Z,144
2018-06-10T12:04:57.775Z,143
2018-06-10T12:05:58.516Z,143
2018-06-10T12:07:00.453Z,143
2018-06-10T12:08:01.591Z,142
2018-06-10T12:09:01.801Z,143
2018-06-10T12:10:02.392Z,144
2018-06-10T12:11:03.797Z,142
2018-06-10T12:12:04.778Z,143
2018-06-10T12:13:05.493Z,143
2018-06-10T12:14:06.827Z,143
2018-06-10T12:15:07.551Z,144
2018-06-10T12:16:08.503Z,143
2018-06-10T12:17:09.791Z,144
2018-06-10T12:18:10.762Z,142
2018-06-10T12:19:11.522Z,143
2018-06-10T12:20:12.966Z,144
2018-06-10T12:21:13.503Z,144
2018-06-10T12:22:14.778Z,144
2018-06-10T12:23:15.769Z,144
2018-06-10T12:24:16.746Z,143
2018-06-10T12:25:17.785Z,143
2018-06-10T12:26:18.765Z,144
2018-06-10T12:27:19.768Z,143
2018-06-10T12:28:20.762Z,143
2018-06-10T12:29:21.398Z,143
2018-06-10T12:30:22.767Z,144
2018-06-10T12:31:23.489Z,142
2018-06-10T12:32:24.576Z,144
2018-06-10T12:33:25.778Z,145
2018-06-10T12:34:26.755Z,145
2018-06-10T12:35:27.590Z,143
2018-06-10T12:36:28.486Z,144
2018-06-10T12:37:29.759Z,143
2018-06-10T12:38:30.502Z,145
2018-06-10T12:39:31.507Z,143
2018-06-10T12:40:32.842Z,144
2018-06-10T12:41:34.880Z,143
2018-06-10T12:42:34.477Z,144
2018-06-10T12:43:35.745Z,143
2018-06-10T12:44:37.399Z,143
2018-06-10T12:45:37.537Z,143
2018-06-10T12:46:38.738Z,145
2018-06-10T12:47:39.764Z,143
2018-06-10T12:48:40.469Z,144
2018-06-10T12:49:41.514Z,145
2018-06-10T12:50:42.899Z,144
2018-06-10T12:51:43.727Z,143
2018-06-10T12:52:44.744Z,144
2018-06-10T12:53:45.758Z,145
2018-06-10T12:54:46.482Z,143
2018-06-10T12:55:47.008Z,144
2018-06-10T12:56:48.770Z,144
2018-06-10T12:57:49.738Z,144
2018-06-10T12:58:50.189Z,145
2018-06-10T12:59:51.445Z,144
2018-06-10T13:00:52.890Z,143
2018-06-10T13:01:53.453Z,143
2018-06-10T13:02:54.727Z,143
2018-06-10T13:03:55.448Z,143
2018-06-10T13:04:56.734Z,143
2018-06-10T13:05:57.598Z,144
2018-06-10T13:06:58.703Z,144
2018-06-10T13:07:59.700Z,143
2018-06-10T13:09:00.721Z,143
2018-06-10T13:10:01.445Z,144
2018-06-10T13:11:02.478Z,144
2018-06-10T13:12:03.446Z,144
2018-06-10T13:13:04.688Z,144
2018-06-10T13:14:05.455Z,143
2018-06-10T13:15:06.450Z,143
2018-06-10T13:16:07.707Z,143
2018-06-10T13:17:08.732Z,145
2018-06-10T13:18:09.731Z,143
2018-06-10T13:19:10.701Z,143
2018-06-10T13:20:11.432Z,144
2018-06-10T13:21:13.039Z,143
2018-06-10T13:22:13.719Z,144
2018-06-10T13:23:14.185Z,143
2018-06-10T13:24:15.730Z,144
2018-06-10T13:25:16.415Z,144
2018-06-10T13:26:17.419Z,143
2018-06-10T13:27:18.698Z,144
2018-06-10T13:28:19.441Z,143
2018-06-10T13:29:20.682Z,144
2018-06-10T13:30:21.428Z,145
2018-06-10T13:31:22.838Z,144
2018-06-10T13:32:23.153Z,143
2018-06-10T13:33:24.675Z,143
2018-06-10T13:34:25.700Z,144
2018-06-10T13:35:26.418Z,143
2018-06-10T13:36:27.697Z,145
2018-06-10T13:37:28.426Z,143
2018-06-10T13:38:29.683Z,144
2018-06-10T13:39:30.685Z,144
2018-06-10T13:40:31.625Z,143
2018-06-10T13:41:32.831Z,142
2018-06-10T13:42:33.664Z,144
2018-06-10T13:43:34.681Z,143
2018-06-10T13:44:35.667Z,143
2018-06-10T13:45:36.400Z,144
2018-06-10T13:46:37.666Z,145
2018-06-10T13:47:38.407Z,144
2018-06-10T13:48:39.406Z,144
2018-06-10T13:49:40.409Z,144
2018-06-10T13:50:42.584Z,144
2018-06-10T13:51:42.395Z,143
2018-06-10T13:52:43.699Z,144
2018-06-10T13:53:44.393Z,143
2018-06-10T13:54:45.657Z,144
2018-06-10T13:55:46.676Z,145
2018-06-10T13:56:48.576Z,143
2018-06-10T13:57:48.409Z,144
2018-06-10T13:58:49.672Z,144
2018-06-10T13:59:51.598Z,143
2018-06-10T14:00:51.669Z,144
2018-06-10T14:01:53.018Z,145
2018-06-10T14:02:53.373Z,144
2018-06-10T14:03:54.665Z,144
2018-06-10T14:04:55.654Z,144
2018-06-10T14:05:56.411Z,144
2018-06-10T14:06:57.653Z,143
2018-06-10T14:07:58.378Z,143
2018-06-10T14:09:00.584Z,143
2018-06-10T14:10:00.958Z,143
2018-06-10T14:11:01.647Z,144
2018-06-10T14:12:02.840Z,144
2018-06-10T14:13:03.651Z,143
2018-06-10T14:14:04.624Z,142
2018-06-10T14:15:05.174Z,143
2018-06-10T14:16:06.633Z,144
2018-06-10T14:17:07.377Z,143
2018-06-10T14:18:08.629Z,144
2018-06-10T14:19:09.629Z,143
2018-06-10T14:20:10.652Z,143
2018-06-10T14:21:11.349Z,145
2018-06-10T14:22:12.660Z,145
2018-06-10T14:23:13.345Z,144
2018-06-10T14:24:14.634Z,144
2018-06-10T14:25:15.337Z,144
2018-06-10T14:26:16.654Z,143
2018-06-10T14:27:17.782Z,142
2018-06-10T14:28:18.633Z,143
2018-06-10T14:29:19.617Z,144
2018-06-10T14:30:20.937Z,145
2018-06-10T14:31:21.356Z,143
2018-06-10T14:32:22.619Z,144
2018-06-10T14:33:23.348Z,143
2018-06-10T14:34:25.539Z,145
2018-06-10T14:35:25.612Z,144
2018-06-10T14:36:26.348Z,143
2018-06-10T14:37:27.759Z,144
2018-06-10T14:38:28.617Z,143
2018-06-10T14:39:29.332Z,144
2018-06-10T14:40:30.335Z,143
2018-06-10T14:41:31.596Z,145
2018-06-10T14:42:32.730Z,144
2018-06-10T14:43:33.328Z,144
2018-06-10T14:44:34.637Z,144
2018-06-10T14:45:35.593Z,144
2018-06-10T14:46:36.337Z,143
2018-06-10T14:47:37.143Z,143
2018-06-10T14:48:38.594Z,145
2018-06-10T14:49:39.413Z,143
2018-06-10T14:50:40.608Z,143
2018-06-10T14:51:41.333Z,144
2018-06-10T14:52:42.773Z,144
2018-06-10T14:53:43.317Z,145
2018-06-10T14:54:44.589Z,143
2018-06-10T14:55:45.605Z,145
2018-06-10T14:56:46.296Z,144
2018-06-10T14:57:47.682Z,143
2018-06-10T14:58:48.600Z,144
2018-06-10T14:59:49.583Z,143
2018-06-10T15:00:50.027Z,143
2018-06-10T15:01:51.601Z,144
2018-06-10T15:02:52.577Z,143
2018-06-10T15:03:53.338Z,144
2018-06-10T15:04:53.764Z,144
2018-06-10T15:05:55.764Z,144
2018-06-10T15:06:56.320Z,144
2018-06-10T15:07:56.777Z,144
2018-06-10T15:08:58.970Z,143
2018-06-10T15:09:58.857Z,145
2018-06-10T15:11:00.346Z,145
2018-06-10T15:12:01.517Z,144
2018-06-10T15:13:02.321Z,144
2018-06-10T15:14:02.779Z,144
2018-06-10T15:15:04.046Z,143
2018-06-10T15:16:04.505Z,144
2018-06-10T15:17:06.321Z,144
2018-06-10T15:18:06.751Z,143
2018-06-10T15:19:07.763Z,143
2018-06-10T15:20:09.090Z,142
2018-06-10T15:21:11.506Z,142
2018-06-10T15:22:11.567Z,142
2018-06-10T15:23:12.700Z,143
2018-06-10T15:24:13.552Z,143
2018-06-10T15:25:14.007Z,143
2018-06-10T15:26:15.280Z,143